Time;durP1;ratioP1;P1;durP2;ratioP2;P2;SDS_P1;SDS_P2;PMS_P1;PMS_P2;Temp;Humidity;BMP_temperature;BMP_pressure;BME280_temperature;BME280_humidity;BME280_pressure;Samples;Min_cycle;Max_cycle;Signal;HPM_P1;HPM_P2
2022/07/02 00:01:40;;;;;;;13.20;10.30;;;;;;;20.65;78.68;100162.09;105755;1281;138759;-72
2022/07/02 00:04:16;;;;;;;13.10;9.70;;;;;;;20.69;77.78;100159.30;106331;1280;97847;-73
2022/07/02 00:06:49;;;;;;;11.90;9.40;;;;;;;20.71;77.61;100169.89;105946;1280;140436;-70
2022/07/02 00:09:22;;;;;;;10.70;9.00;;;;;;;20.74;77.43;100180.93;106491;1280;112508;-72
2022/07/02 00:11:58;;;;;;;8.90;8.00;;;;;;;20.75;77.05;100197.16;105882;1280;108880;-73
2022/07/02 00:14:32;;;;;;;10.30;8.10;;;;;;;20.71;76.74;100197.65;106142;1281;138824;-72
2022/07/02 00:17:06;;;;;;;10.80;8.60;;;;;;;20.63;76.30;100182.90;105896;1280;97843;-73
2022/07/02 00:19:39;;;;;;;12.90;9.80;;;;;;;20.59;76.96;100182.30;106395;1280;138585;-74
2022/07/02 00:22:14;;;;;;;11.20;8.40;;;;;;;20.58;76.80;100186.60;106555;1280;113733;-73
2022/07/02 00:24:47;;;;;;;10.90;9.00;;;;;;;20.57;76.88;100196.42;106078;1281;109481;-72
2022/07/02 00:27:21;;;;;;;22.40;9.20;;;;;;;20.55;76.98;100232.38;107084;1281;108890;-72
2022/07/02 00:29:58;;;;;;;182.00;128.60;;;;;;;20.48;76.93;100226.20;106044;1281;97868;-74
2022/07/02 00:32:33;;;;;;;12.50;9.70;;;;;;;20.37;77.72;100184.95;106346;1280;140407;-72
2022/07/02 00:35:08;;;;;;;10.20;9.10;;;;;;;20.34;77.88;100164.88;107116;1280;112251;-72
2022/07/02 00:37:41;;;;;;;12.90;9.60;;;;;;;20.33;78.20;100163.69;106779;1280;139371;-72
2022/07/02 00:40:14;;;;;;;14.90;11.60;;;;;;;20.34;78.31;100156.95;105923;1281;108868;-73
2022/07/02 00:42:47;;;;;;;12.50;11.10;;;;;;;20.36;78.52;100144.74;106612;1280;97879;-73
2022/07/02 00:45:20;;;;;;;15.70;12.30;;;;;;;20.37;78.73;100119.77;106144;1281;97828;-74
2022/07/02 00:47:54;;;;;;;653.10;79.50;;;;;;;20.38;78.84;100120.08;106256;1280;112493;-74
2022/07/02 00:50:28;;;;;;;37.10;34.00;;;;;;;20.41;79.43;100140.67;105817;1281;140525;-73
2022/07/02 00:53:00;;;;;;;86.00;79.50;;;;;;;20.42;79.70;100152.95;105974;1281;107863;-73
2022/07/02 00:55:33;;;;;;;37.60;34.00;;;;;;;20.43;79.54;100162.30;106745;1280;139310;-74
2022/07/02 00:58:06;;;;;;;51.00;46.50;;;;;;;20.42;79.57;100187.04;106259;1281;97834;-74
2022/07/02 01:00:39;;;;;;;24.10;18.70;;;;;;;20.43;80.03;100226.56;105951;1281;112155;-75
2022/07/02 01:03:13;;;;;;;21.30;13.40;;;;;;;20.39;80.05;100232.11;105888;1280;139040;-74
2022/07/02 01:05:47;;;;;;;19.70;13.80;;;;;;;20.36;80.30;100223.56;106732;1281;107818;-75
2022/07/02 01:11:13;;;;;;;1999.90;999.90;;;;;;;20.31;80.76;100202.91;105892;1281;97761;-74
2022/07/02 01:13:46;;;;;;;1999.90;999.90;;;;;;;20.32;80.67;100198.10;105815;1281;139410;-75
2022/07/02 01:16:18;;;;;;;1999.90;999.90;;;;;;;20.32;80.80;100203.52;106129;1281;108805;-74
2022/07/02 01:18:51;;;;;;;1999.90;999.90;;;;;;;20.37;81.31;100207.91;106151;1283;141095;-73
2022/07/02 01:21:23;;;;;;;1999.90;999.90;;;;;;;20.40;81.50;100193.38;106031;1281;97879;-74
2022/07/02 01:23:56;;;;;;;1999.90;999.90;;;;;;;20.45;81.48;100191.24;105906;1280;97860;-75
2022/07/02 01:26:29;;;;;;;1999.90;999.90;;;;;;;20.52;81.68;100198.92;106152;1280;139476;-75
2022/07/02 01:29:01;;;;;;;1999.90;999.90;;;;;;;20.56;81.53;100202.30;106924;1280;108833;-75
2022/07/02 01:31:33;;;;;;;1999.90;999.90;;;;;;;20.59;81.70;100207.37;106744;1280;140390;-74
2022/07/02 01:34:06;;;;;;;1999.90;999.90;;;;;;;20.62;81.71;100207.16;106450;1280;97856;-74
2022/07/02 01:36:38;;;;;;;1999.90;999.90;;;;;;;20.67;81.80;100207.83;106667;1280;97855;-74
2022/07/02 01:39:11;;;;;;;1348.90;678.60;;;;;;;20.73;82.07;100198.92;106225;1281;139354;-75
2022/07/02 01:41:43;;;;;;;1999.90;999.90;;;;;;;20.78;82.08;100201.30;106231;1280;108205;-74
2022/07/02 01:44:16;;;;;;;1999.90;999.90;;;;;;;20.83;82.13;100204.87;105820;1281;139651;-73
2022/07/02 01:46:49;;;;;;;1999.90;999.90;;;;;;;20.88;81.93;100199.56;106151;1281;97881;-72
2022/07/02 01:49:21;;;;;;;1999.90;999.90;;;;;;;20.93;82.07;100207.25;105926;1283;140483;-73
2022/07/02 01:51:54;;;;;;;1999.90;999.90;;;;;;;20.98;81.89;100204.77;106293;1281;111471;-73
2022/07/02 01:54:26;;;;;;;164.80;154.10;;;;;;;21.02;81.99;100211.39;106359;1280;107473;-73
2022/07/02 01:57:00;;;;;;;118.10;109.90;;;;;;;21.05;81.55;100224.34;105765;1281;139685;-75
2022/07/02 01:59:32;;;;;;;126.50;118.20;;;;;;;21.09;81.77;100239.98;105799;1281;97877;-74
2022/07/02 02:02:06;;;;;;;99.90;92.80;;;;;;;21.09;81.37;100250.40;105762;1281;140365;-76
2022/07/02 02:04:39;;;;;;;154.10;144.30;;;;;;;21.08;81.06;100251.22;106723;1281;112357;-74
2022/07/02 02:07:12;;;;;;;78.30;72.20;;;;;;;21.06;81.21;100266.40;105958;1280;140988;-75
2022/07/02 02:09:44;;;;;;;53.40;48.40;;;;;;;21.04;81.26;100265.34;105858;1281;108470;-75
2022/07/02 02:12:18;;;;;;;112.30;104.20;;;;;;;21.02;81.58;100268.45;106950;1280;96503;-76
2022/07/02 02:14:51;;;;;;;36.50;32.80;;;;;;;20.99;81.39;100270.63;105939;1280;139434;-75
2022/07/02 02:17:23;;;;;;;36.80;33.20;;;;;;;20.99;81.26;100262.30;106787;1281;112531;-75
2022/07/02 02:19:55;;;;;;;39.80;36.00;;;;;;;21.00;81.34;100261.02;106735;1280;139046;-75
2022/07/02 02:22:28;;;;;;;52.20;47.60;;;;;;;21.02;81.74;100262.84;106350;1280;108945;-75
2022/07/02 02:25:00;;;;;;;140.10;126.10;;;;;;;21.04;81.43;100257.14;105941;1281;140787;-75
2022/07/02 02:27:33;;;;;;;1999.90;999.90;;;;;;;21.06;81.54;100251.34;106791;1280;96172;-76
2022/07/02 02:30:07;;;;;;;36.50;25.30;;;;;;;21.08;81.57;100267.47;105904;1281;111667;-75
2022/07/02 02:32:39;;;;;;;35.30;26.40;;;;;;;21.08;81.28;100270.12;106487;1281;140058;-75
2022/07/02 02:35:12;;;;;;;53.90;23.80;;;;;;;21.06;80.90;100268.86;105926;1281;108855;-75
2022/07/02 02:37:44;;;;;;;34.30;23.60;;;;;;;21.03;80.85;100268.40;105899;1281;138954;-74
2022/07/02 02:40:17;;;;;;;43.50;39.10;;;;;;;21.02;80.80;100271.82;105926;1280;98170;-75
2022/07/02 02:42:49;;;;;;;38.40;31.00;;;;;;;21.02;80.92;100279.97;106320;1281;139089;-74
2022/07/02 02:45:22;;;;;;;39.20;32.20;;;;;;;20.99;80.68;100276.95;105936;1281;107791;-76
2022/07/02 02:47:54;;;;;;;39.50;35.50;;;;;;;20.98;80.73;100281.14;105872;1281;108895;-75
2022/07/02 02:50:27;;;;;;;36.50;26.70;;;;;;;20.96;80.65;100283.77;105799;1279;139129;-75
2022/07/02 02:52:59;;;;;;;31.50;25.50;;;;;;;20.94;80.96;100273.30;106141;1281;97879;-75
2022/07/02 02:55:32;;;;;;;31.90;25.50;;;;;;;20.93;80.95;100266.14;105799;1281;139217;-75
2022/07/02 02:58:04;;;;;;;34.00;26.00;;;;;;;20.91;81.38;100258.14;106376;1281;108860;-75
2022/07/02 03:00:37;;;;;;;32.50;26.40;;;;;;;20.92;81.67;100253.28;106050;1281;108741;-73
2022/07/02 03:03:09;;;;;;;29.10;23.90;;;;;;;20.94;81.52;100250.31;105834;1281;139860;-73
2022/07/02 03:05:42;;;;;;;49.80;27.10;;;;;;;20.96;81.47;100242.02;105846;1280;97830;-74
2022/07/02 03:08:15;;;;;;;31.10;25.10;;;;;;;20.97;81.62;100228.85;105847;1281;138877;-74
2022/07/02 03:10:48;;;;;;;32.50;25.20;;;;;;;21.00;81.62;100221.41;105867;1281;109651;-74
2022/07/02 03:13:21;;;;;;;33.60;25.80;;;;;;;21.05;82.07;100215.90;106040;1281;139676;-74
2022/07/02 03:15:53;;;;;;;30.50;26.00;;;;;;;21.08;82.25;100214.05;105817;1281;97870;-74
2022/07/02 03:18:26;;;;;;;28.90;25.10;;;;;;;21.10;82.01;100205.25;105955;1281;98180;-74
2022/07/02 03:20:59;;;;;;;33.60;26.80;;;;;;;21.16;81.84;100207.66;105898;1281;138933;-74
2022/07/02 03:23:31;;;;;;;30.30;25.10;;;;;;;21.21;82.35;100215.94;106163;1281;108990;-75
2022/07/02 03:26:04;;;;;;;36.60;27.70;;;;;;;21.23;82.30;100226.90;105839;1280;139424;-75
2022/07/02 03:28:37;;;;;;;35.30;27.10;;;;;;;21.22;82.03;100240.41;105918;1280;98013;-74
2022/07/02 03:31:09;;;;;;;30.10;25.80;;;;;;;21.19;81.80;100242.45;106072;1280;140065;-74
2022/07/02 03:33:42;;;;;;;36.20;25.60;;;;;;;21.15;81.78;100234.98;106348;1279;112538;-74
2022/07/02 03:36:14;;;;;;;30.00;22.50;;;;;;;21.09;81.79;100224.96;106228;1281;108867;-75
2022/07/02 03:38:48;;;;;;;31.00;22.60;;;;;;;21.05;81.36;100231.14;105814;1281;139126;-75
2022/07/02 03:41:20;;;;;;;25.00;19.80;;;;;;;20.99;81.05;100246.59;106228;1281;97783;-75
2022/07/02 03:43:52;;;;;;;24.00;18.90;;;;;;;20.92;81.00;100244.66;106959;1280;139596;-74
2022/07/02 03:46:24;;;;;;;24.90;18.10;;;;;;;20.88;81.01;100248.64;107062;1280;113485;-74
2022/07/02 03:48:57;;;;;;;25.00;18.40;;;;;;;20.87;80.93;100262.21;106591;1282;139281;-75
2022/07/02 03:51:29;;;;;;;23.30;17.90;;;;;;;20.80;80.85;100271.34;105859;1281;109112;-76
2022/07/02 03:54:02;;;;;;;24.20;16.30;;;;;;;20.75;80.88;100277.19;107050;1280;96075;-75
2022/07/02 03:56:35;;;;;;;22.30;17.10;;;;;;;20.70;80.86;100285.36;106008;1281;138854;-75
2022/07/02 03:59:07;;;;;;;22.30;16.00;;;;;;;20.69;81.03;100294.47;106507;1280;112317;-75
2022/07/02 04:01:39;;;;;;;23.90;15.50;;;;;;;20.68;81.05;100299.62;105709;1281;139650;-74
2022/07/02 04:04:12;;;;;;;19.50;15.00;;;;;;;20.66;80.81;100298.95;106911;1281;108870;-76
2022/07/02 04:06:44;;;;;;;22.20;15.90;;;;;;;20.63;81.00;100302.98;106156;1281;96596;-76
2022/07/02 04:09:17;;;;;;;17.90;15.60;;;;;;;20.61;80.92;100290.59;105861;1281;97969;-75
2022/07/02 04:11:49;;;;;;;23.80;15.60;;;;;;;20.60;81.12;100286.98;105963;1281;112497;-74
2022/07/02 04:14:21;;;;;;;23.60;17.40;;;;;;;20.59;81.20;100290.92;106029;1281;140474;-75
2022/07/02 04:16:54;;;;;;;24.80;19.70;;;;;;;20.60;81.23;100291.04;105630;1280;109164;-74
2022/07/02 04:19:26;;;;;;;26.60;22.10;;;;;;;20.59;80.95;100290.79;105824;1280;139176;-75
2022/07/02 04:22:01;;;;;;;26.10;20.40;;;;;;;20.57;80.90;100295.35;106547;1281;97866;-76
2022/07/02 04:24:33;;;;;;;25.30;21.10;;;;;;;20.52;80.94;100298.33;105991;1280;112755;-76
2022/07/02 04:27:06;;;;;;;26.60;22.30;;;;;;;20.47;80.76;100296.23;105820;1281;138808;-75
2022/07/02 04:29:39;;;;;;;34.20;21.90;;;;;;;20.41;80.78;100292.36;106456;1280;107892;-76
2022/07/02 04:32:11;;;;;;;29.90;22.20;;;;;;;20.34;80.50;100285.46;106397;1280;138994;-76
2022/07/02 04:34:44;;;;;;;35.30;23.90;;;;;;;20.33;80.60;100276.71;106336;1281;96608;-75
2022/07/02 04:37:16;;;;;;;35.00;22.60;;;;;;;20.39;80.69;100287.73;105682;1281;140011;-75
2022/07/02 04:39:48;;;;;;;36.30;23.00;;;;;;;20.42;80.32;100297.59;106967;1280;109188;-76
2022/07/02 04:42:21;;;;;;;36.70;24.40;;;;;;;20.45;80.20;100303.42;105869;1281;108957;-76
2022/07/02 04:44:54;;;;;;;35.20;21.40;;;;;;;20.47;80.02;100313.15;105925;1281;138004;-76
2022/07/02 04:47:26;;;;;;;28.30;17.00;;;;;;;20.45;79.70;100316.30;106325;1280;97756;-76
2022/07/02 04:49:59;;;;;;;25.60;16.40;;;;;;;20.43;79.80;100334.66;105765;1281;139598;-75
2022/07/02 04:52:31;;;;;;;26.40;16.40;;;;;;;20.42;79.98;100332.59;106176;1280;108422;-76
2022/07/02 04:55:04;;;;;;;27.10;15.30;;;;;;;20.43;79.74;100337.84;105915;1281;140521;-76
2022/07/02 04:57:36;;;;;;;20.40;13.40;;;;;;;20.43;79.69;100342.92;105911;1280;97959;-75
2022/07/02 05:00:11;;;;;;;15.20;11.20;;;;;;;20.41;79.59;100343.44;105825;1281;97836;-75
2022/07/02 05:02:43;;;;;;;15.90;11.50;;;;;;;20.34;79.26;100348.50;106462;1281;138722;-76
2022/07/02 05:05:16;;;;;;;14.60;10.00;;;;;;;20.29;79.23;100353.66;106181;1281;107758;-74
2022/07/02 05:07:48;;;;;;;14.60;10.20;;;;;;;20.24;79.19;100362.61;105703;1280;138919;-75
2022/07/02 05:10:21;;;;;;;14.50;10.20;;;;;;;20.23;79.31;100365.16;106125;1281;97843;-74
2022/07/02 05:12:53;;;;;;;13.10;10.20;;;;;;;20.24;79.16;100362.95;106921;1281;139446;-75
2022/07/02 05:15:26;;;;;;;16.50;9.40;;;;;;;20.27;78.96;100364.69;106127;1281;112432;-75
2022/07/02 05:17:58;;;;;;;12.90;9.00;;;;;;;20.32;78.65;100378.13;106288;1281;109207;-74
2022/07/02 05:20:31;;;;;;;13.70;10.00;;;;;;;20.40;78.43;100378.65;105893;1281;139073;-74
2022/07/02 05:23:03;;;;;;;15.20;9.70;;;;;;;20.53;78.21;100379.89;106232;1281;96409;-74
2022/07/02 05:25:35;;;;;;;12.00;9.50;;;;;;;20.58;77.81;100382.31;105869;1281;138715;-74
2022/07/02 05:28:08;;;;;;;13.40;9.80;;;;;;;20.60;77.74;100383.94;105836;1281;112700;-76
2022/07/02 05:30:40;;;;;;;13.70;9.80;;;;;;;20.63;77.76;100387.77;105998;1281;109039;-74
2022/07/02 05:33:13;;;;;;;15.20;10.20;;;;;;;20.67;77.80;100385.38;105740;1281;140556;-75
2022/07/02 05:35:45;;;;;;;14.20;10.40;;;;;;;20.74;77.43;100385.08;105932;1281;97876;-75
2022/07/02 05:38:18;;;;;;;13.70;10.30;;;;;;;20.79;77.13;100388.73;106142;1281;139729;-76
2022/07/02 05:40:50;;;;;;;18.50;10.80;;;;;;;20.82;76.93;100392.45;105876;1281;113392;-75
2022/07/02 05:43:23;;;;;;;16.00;10.70;;;;;;;20.85;76.55;100401.06;105837;1281;139338;-76
2022/07/02 05:45:55;;;;;;;17.90;11.60;;;;;;;20.79;76.26;100404.98;105958;1280;108702;-76
2022/07/02 05:48:28;;;;;;;15.30;11.70;;;;;;;20.73;76.18;100405.46;105956;1281;97863;-75
2022/07/02 05:51:01;;;;;;;13.30;11.60;;;;;;;20.70;76.33;100410.63;105926;1281;138759;-75
2022/07/02 05:53:33;;;;;;;15.90;11.10;;;;;;;20.68;76.46;100412.16;106005;1281;112513;-75
2022/07/02 05:56:06;;;;;;;17.20;12.50;;;;;;;20.66;76.65;100414.09;105721;1281;139288;-76
2022/07/02 05:58:39;;;;;;;17.60;12.70;;;;;;;20.61;76.54;100415.67;106028;1281;108953;-75
2022/07/02 06:01:11;;;;;;;14.80;12.10;;;;;;;20.59;76.52;100411.58;105686;1281;139094;-77
2022/07/02 06:03:44;;;;;;;85.60;14.70;;;;;;;20.59;76.49;100410.03;105882;1281;97823;-75
2022/07/02 06:09:13;;;;;;;16.30;10.80;;;;;;;20.52;76.17;100408.19;105559;1281;138889;-75
2022/07/02 06:11:45;;;;;;;15.40;11.40;;;;;;;20.53;76.43;100408.52;105606;1284;109478;-76
2022/07/02 06:14:18;;;;;;;22.20;12.20;;;;;;;20.53;76.43;100412.19;105547;1281;139625;-75
2022/07/02 06:16:50;;;;;;;16.60;11.30;;;;;;;20.53;76.54;100409.73;105804;1281;97744;-75
2022/07/02 06:19:23;;;;;;;19.70;11.80;;;;;;;20.51;76.48;100411.08;105801;1281;142999;-75
2022/07/02 06:21:55;;;;;;;14.00;6.90;;;;;;;20.49;76.52;100413.17;105857;1281;108710;-76
2022/07/02 06:24:28;;;;;;;16.00;12.20;;;;;;;20.49;76.62;100416.16;105732;1281;108332;-76
2022/07/02 06:27:00;;;;;;;18.30;11.70;;;;;;;20.51;76.83;100421.14;105686;1280;139254;-75
2022/07/02 06:29:33;;;;;;;20.30;10.50;;;;;;;20.55;76.87;100425.88;105815;1281;98568;-76
2022/07/02 06:32:06;;;;;;;14.00;9.60;;;;;;;20.57;76.89;100436.49;105723;1281;139331;-76
2022/07/02 06:34:39;;;;;;;13.50;9.10;;;;;;;20.59;76.95;100443.03;105843;1280;108882;-75
2022/07/02 06:37:12;;;;;;;12.60;9.70;;;;;;;20.60;76.68;100446.36;105737;1281;139672;-76
2022/07/02 06:39:44;;;;;;;14.40;9.60;;;;;;;20.61;76.86;100455.96;106210;1281;97833;-76
2022/07/02 06:42:20;;;;;;;13.00;8.60;;;;;;;20.65;76.87;100460.25;105875;1281;99436;-75
2022/07/02 06:44:54;;;;;;;13.90;8.20;;;;;;;20.68;76.97;100464.66;105797;1281;140067;-76
2022/07/02 06:47:32;;;;;;;10.80;8.30;;;;;;;20.70;77.04;100468.58;106069;1281;107578;-76
2022/07/02 06:50:06;;;;;;;9.40;7.20;;;;;;;20.76;77.17;100471.70;105840;1281;138908;-75
2022/07/02 06:52:38;;;;;;;9.10;7.70;;;;;;;20.80;76.70;100475.43;105836;1281;98557;-74
2022/07/02 06:55:11;;;;;;;7.30;5.30;;;;;;;20.82;76.88;100482.38;105789;1281;138644;-75
2022/07/02 06:57:44;;;;;;;5.90;4.30;;;;;;;20.74;76.44;100483.11;106043;1281;111445;-76
2022/07/02 07:00:21;;;;;;;7.50;4.10;;;;;;;20.63;76.27;100486.55;106271;1281;108959;-75
2022/07/02 07:02:53;;;;;;;5.80;3.80;;;;;;;20.53;76.53;100489.90;105631;1283;139173;-76
2022/07/02 07:05:27;;;;;;;7.20;3.80;;;;;;;20.49;76.60;100494.77;105840;1281;97853;-74
2022/07/02 07:08:00;;;;;;;6.40;4.30;;;;;;;20.46;76.76;100504.30;105866;1281;138670;-76
2022/07/02 07:10:32;;;;;;;5.00;4.50;;;;;;;20.45;77.01;100506.52;105960;1281;112332;-76
2022/07/02 07:13:05;;;;;;;11.90;4.90;;;;;;;20.43;76.95;100505.59;105886;1280;138940;-76
2022/07/02 07:15:37;;;;;;;8.10;5.50;;;;;;;20.40;77.10;100514.08;105789;1281;109283;-73
2022/07/02 07:18:10;;;;;;;9.80;6.50;;;;;;;20.40;77.15;100522.36;106241;1281;97847;-76
2022/07/02 07:20:42;;;;;;;10.80;8.20;;;;;;;20.39;77.25;100528.60;105789;1281;139062;-74
2022/07/02 07:23:15;;;;;;;13.20;9.90;;;;;;;20.38;77.04;100530.61;105795;1281;112541;-76
2022/07/02 07:25:47;;;;;;;11.00;9.00;;;;;;;20.35;76.97;100544.29;105748;1281;139601;-75
2022/07/02 07:28:21;;;;;;;16.40;9.70;;;;;;;20.36;77.22;100546.54;105885;1281;109037;-75
2022/07/02 07:30:53;;;;;;;17.00;10.80;;;;;;;20.39;77.29;100546.83;105798;1281;139002;-77
2022/07/02 07:33:26;;;;;;;12.20;9.50;;;;;;;20.43;77.36;100547.84;106984;1280;96028;-77
2022/07/02 07:35:58;;;;;;;10.90;8.70;;;;;;;20.42;77.25;100550.51;105943;1281;110970;-75
2022/07/02 07:38:31;;;;;;;16.20;10.30;;;;;;;20.41;77.43;100553.96;105881;1281;139548;-74
2022/07/02 07:41:03;;;;;;;16.90;9.70;;;;;;;20.39;77.25;100555.33;105872;1281;107751;-75
2022/07/02 07:43:35;;;;;;;12.00;9.90;;;;;;;20.35;77.32;100556.98;105741;1280;139009;-76
2022/07/02 07:46:08;;;;;;;12.60;9.90;;;;;;;20.36;77.43;100557.61;106408;1281;96481;-76
2022/07/02 07:48:41;;;;;;;15.00;10.10;;;;;;;20.35;77.61;100561.27;105759;1281;112265;-74
2022/07/02 07:51:17;;;;;;;11.70;9.60;;;;;;;20.36;77.88;100562.58;106049;1281;108911;-75
2022/07/02 07:53:49;;;;;;;12.30;9.80;;;;;;;20.36;77.58;100568.40;106313;1281;109079;-77
2022/07/02 07:56:22;;;;;;;12.20;9.20;;;;;;;20.42;77.52;100574.73;105715;1281;138933;-76
2022/07/02 07:58:54;;;;;;;12.40;10.50;;;;;;;20.48;77.48;100578.88;106077;1281;98092;-75
2022/07/02 08:01:28;;;;;;;13.70;10.60;;;;;;;20.52;77.10;100581.81;106053;1281;139221;-73
2022/07/02 08:04:00;;;;;;;13.10;9.90;;;;;;;20.55;76.92;100586.07;106037;1281;108739;-75
2022/07/02 08:06:33;;;;;;;12.60;9.60;;;;;;;20.57;76.82;100588.58;105878;1281;108684;-74
2022/07/02 08:09:06;;;;;;;12.90;9.60;;;;;;;20.59;76.55;100592.83;105689;1281;139679;-74
2022/07/02 08:11:38;;;;;;;12.00;9.30;;;;;;;20.59;76.52;100593.36;106382;1281;97827;-75
2022/07/02 08:14:10;;;;;;;15.30;10.00;;;;;;;20.58;76.13;100594.34;105773;1281;139081;-75
2022/07/02 08:16:43;;;;;;;12.00;9.60;;;;;;;20.57;75.81;100601.27;105831;1280;108543;-75
2022/07/02 08:19:16;;;;;;;12.80;10.50;;;;;;;20.57;76.04;100598.79;105687;1281;140742;-77
2022/07/02 08:21:49;;;;;;;14.20;10.90;;;;;;;20.55;75.79;100597.59;106094;1281;97831;-77
2022/07/02 08:24:21;;;;;;;1999.90;999.90;;;;;;;20.53;75.84;100599.96;105746;1281;98093;-76
2022/07/02 08:26:54;;;;;;;14.30;11.70;;;;;;;20.55;75.75;100603.34;105644;1283;139537;-77
2022/07/02 08:29:26;;;;;;;15.60;12.20;;;;;;;20.58;75.91;100604.00;105904;1281;109424;-76
2022/07/02 08:31:59;;;;;;;16.30;11.60;;;;;;;20.62;75.66;100603.09;105921;1281;139161;-76
2022/07/02 08:34:32;;;;;;;14.30;10.60;;;;;;;20.63;75.76;100597.53;105695;1281;97894;-75
2022/07/02 08:37:05;;;;;;;18.30;15.00;;;;;;;20.64;75.86;100598.17;105743;1281;139775;-75
2022/07/02 08:39:38;;;;;;;1999.90;999.90;;;;;;;20.67;75.94;100598.18;106250;1281;113033;-76
2022/07/02 08:42:25;;;;;;;1999.90;999.90;;;;;;;20.69;75.70;100602.05;105813;1281;109296;-76
2022/07/02 08:45:03;;;;;;;1999.90;999.90;;;;;;;20.73;75.69;100607.41;105837;1281;140797;-76
2022/07/02 08:47:36;;;;;;;1999.90;999.90;;;;;;;20.77;75.50;100612.81;106969;1281;96372;-77
2022/07/02 08:50:10;;;;;;;43.70;40.70;;;;;;;20.73;75.06;100613.65;105614;1281;140081;-75
2022/07/02 08:52:43;;;;;;;17.60;15.90;;;;;;;20.66;75.09;100613.36;105746;1281;112634;-76
2022/07/02 08:55:17;;;;;;;41.30;37.30;;;;;;;20.66;75.24;100617.79;105991;1281;139256;-76
2022/07/02 08:57:52;;;;;;;25.80;23.50;;;;;;;20.67;75.12;100609.98;105876;1280;108915;-76
2022/07/02 09:00:25;;;;;;;39.10;36.40;;;;;;;20.64;75.10;100604.34;105998;1281;97956;-75
2022/07/02 09:03:00;;;;;;;;;;;;;;;20.61;75.13;100608.75;105798;1281;139007;-75
2022/07/02 09:05:34;;;;;;;55.70;51.80;;;;;;;20.62;75.48;100616.48;105855;1281;112649;-77
2022/07/02 09:08:08;;;;;;;14.20;12.10;;;;;;;20.67;75.65;100623.78;105655;1281;139675;-76
2022/07/02 09:10:40;;;;;;;12.20;10.90;;;;;;;20.68;75.11;100627.02;105893;1280;108911;-76
2022/07/02 09:13:14;;;;;;;8.10;5.80;;;;;;;20.67;74.95;100631.19;105958;1281;140538;-76
2022/07/02 09:15:48;;;;;;;11.50;9.00;;;;;;;20.68;75.01;100632.51;106181;1280;97863;-77
2022/07/02 09:18:20;;;;;;;9.70;8.40;;;;;;;20.73;74.97;100632.33;105716;1281;112520;-77
2022/07/02 09:20:53;;;;;;;7.70;6.90;;;;;;;20.75;74.87;100634.13;105779;1281;140234;-76
2022/07/02 09:23:26;;;;;;;7.40;6.70;;;;;;;20.78;74.68;100636.09;105879;1281;109643;-77
2022/07/02 09:26:03;;;;;;;11.70;9.60;;;;;;;20.78;74.62;100638.33;105826;1281;140345;-78
2022/07/02 09:28:36;;;;;;;14.40;10.00;;;;;;;20.78;74.66;100636.38;105878;1281;97868;-76
2022/07/02 09:31:08;;;;;;;10.50;9.50;;;;;;;20.83;74.69;100639.60;105774;1281;139410;-75
2022/07/02 09:33:42;;;;;;;13.20;12.00;;;;;;;20.87;74.68;100644.33;105873;1281;108854;-75
2022/07/02 09:36:16;;;;;;;19.40;17.70;;;;;;;20.89;74.26;100642.18;105947;1281;109041;-76
2022/07/02 09:38:50;;;;;;;26.20;24.40;;;;;;;20.94;74.17;100639.73;106227;1281;139458;-76
2022/07/02 09:41:24;;;;;;;25.80;24.10;;;;;;;20.96;73.84;100640.96;105916;1280;97866;-76
2022/07/02 09:43:59;;;;;;;29.50;27.40;;;;;;;20.99;73.88;100645.55;105907;1281;138884;-76
2022/07/02 09:46:32;;;;;;;25.50;24.10;;;;;;;21.01;73.54;100644.52;106957;1280;109539;-75
2022/07/02 09:49:11;;;;;;;24.30;22.90;;;;;;;21.01;73.53;100645.95;105565;1281;279552;-74
2022/07/02 09:51:52;;;;;;;21.50;20.20;;;;;;;21.04;73.35;100643.11;105857;1281;97900;-75
2022/07/02 09:54:26;;;;;;;25.30;23.90;;;;;;;21.13;73.27;100641.94;106007;1281;97751;-76
2022/07/02 09:57:00;;;;;;;30.30;28.60;;;;;;;21.23;73.05;100641.60;105736;1281;138753;-75
2022/07/02 09:59:38;;;;;;;27.70;26.10;;;;;;;21.35;72.85;100634.95;106091;1281;107981;-75
2022/07/02 10:02:21;;;;;;;30.80;29.20;;;;;;;21.49;72.54;100635.15;106091;1281;140900;-76
2022/07/02 10:04:56;;;;;;;24.00;22.60;;;;;;;21.69;72.25;100634.09;105979;1281;97868;-76
2022/07/02 10:07:28;;;;;;;20.30;19.00;;;;;;;21.95;71.98;100640.69;105913;1281;139022;-75
2022/07/02 10:10:05;;;;;;;64.10;60.00;;;;;;;22.14;71.41;100646.91;105990;1281;112683;-75
2022/07/02 10:12:36;;;;;;;;;;;;;;;22.26;70.83;100648.17;105898;1281;108966;-76
2022/07/02 10:15:10;;;;;;;25.30;22.90;;;;;;;22.28;70.50;100652.80;105598;1281;124880;-76
2022/07/02 10:17:44;;;;;;;2.90;2.30;;;;;;;22.24;70.22;100654.11;105674;1281;98395;-77
2022/07/02 10:20:18;;;;;;;1.70;1.60;;;;;;;22.20;70.05;100657.48;105606;1281;139204;-77
2022/07/02 10:22:51;;;;;;;1.40;1.30;;;;;;;22.15;70.09;100658.73;105749;1281;111396;-76
2022/07/02 10:25:24;;;;;;;3.10;1.60;;;;;;;22.05;69.80;100661.06;105472;1284;139713;-76
2022/07/02 10:27:57;;;;;;;2.10;1.90;;;;;;;21.94;69.78;100663.77;106312;1282;108953;-75
2022/07/02 10:30:32;;;;;;;3.10;2.40;;;;;;;21.85;69.83;100666.00;105932;1281;97930;-75
2022/07/02 10:33:14;;;;;;;4.90;2.20;;;;;;;21.79;69.72;100662.79;106288;1281;138328;-77
2022/07/02 10:35:48;;;;;;;3.40;2.70;;;;;;;21.72;69.69;100671.20;106561;1281;112676;-76
2022/07/02 10:38:30;;;;;;;3.80;2.20;;;;;;;21.63;69.21;100674.11;105854;1281;138693;-77
2022/07/02 10:41:03;;;;;;;2.30;1.70;;;;;;;21.55;69.44;100672.25;105842;1281;108711;-76
2022/07/02 10:43:38;;;;;;;1.80;1.60;;;;;;;21.56;69.46;100669.90;106479;1281;140206;-77
2022/07/02 10:46:13;;;;;;;2.60;1.70;;;;;;;21.68;69.60;100675.05;105950;1281;98402;-78
2022/07/02 10:48:52;;;;;;;1.60;1.50;;;;;;;21.79;68.96;100675.52;106284;1281;112403;-76
2022/07/02 10:51:26;;;;;;;2.00;1.50;;;;;;;21.87;68.88;100681.77;106126;1281;108912;-76
2022/07/02 10:54:03;;;;;;;1.80;1.50;;;;;;;21.92;68.53;100682.50;106142;1281;107914;-76
2022/07/02 10:56:49;;;;;;;3.70;1.60;;;;;;;21.91;68.32;100682.38;105771;1281;138691;-75
2022/07/02 10:59:26;;;;;;;3.70;1.70;;;;;;;21.91;68.13;100680.65;105797;1281;98070;-77
2022/07/02 11:02:03;;;;;;;;;;;;;;;21.94;68.27;100682.02;106256;1281;138652;-76
2022/07/02 11:04:38;;;;;;;3.20;1.70;;;;;;;21.97;68.02;100682.12;106072;1281;108890;-76
2022/07/02 11:07:14;;;;;;;3.70;1.70;;;;;;;21.99;67.49;100684.15;105574;1281;139138;-77
2022/07/02 11:09:51;;;;;;;4.20;2.10;;;;;;;22.00;67.71;100681.70;105888;1281;98006;-76
2022/07/02 11:12:49;;;;;;;2.50;1.60;;;;;;;22.06;67.22;100679.91;105969;1280;97879;-78
2022/07/02 11:15:26;;;;;;;3.00;1.30;;;;;;;22.06;67.26;100680.45;105895;1281;111970;-77
2022/07/02 11:18:05;;;;;;;3.50;1.70;;;;;;;22.10;67.04;100683.77;106059;1281;106458;-77
2022/07/02 11:20:37;;;;;;;2.80;1.80;;;;;;;22.12;66.74;100683.59;106353;1281;138632;-76
2022/07/02 11:23:11;;;;;;;2.90;1.70;;;;;;;22.09;66.38;100687.72;105830;1281;97964;-77
2022/07/02 11:25:43;;;;;;;2.80;2.00;;;;;;;22.04;66.26;100691.94;105673;1281;138407;-78
2022/07/02 11:28:16;;;;;;;3.90;2.70;;;;;;;21.97;65.97;100688.66;106008;1281;113021;-76
2022/07/02 11:30:59;;;;;;;3.70;2.20;;;;;;;21.92;65.78;100690.48;106028;1281;108903;-74